createdAt,value
2022-07-26T00:01:47.286Z,25.33
2022-07-26T00:04:14.507Z,25.31
2022-07-26T00:06:43.573Z,25.28
2022-07-26T00:09:13.626Z,25.26
2022-07-26T00:11:40.439Z,25.25
2022-07-26T00:14:07.748Z,25.21
2022-07-26T00:16:39.797Z,25.17
2022-07-26T00:19:26.663Z,25.17
2022-07-26T00:22:13.242Z,25.15
2022-07-26T00:24:42.159Z,25.14
2022-07-26T00:27:10.900Z,25.12
2022-07-26T00:29:39.710Z,25.11
2022-07-26T00:32:08.715Z,25.08
2022-07-26T00:34:37.592Z,25.05
2022-07-26T00:37:04.198Z,24.95
2022-07-26T00:39:30.824Z,24.81
2022-07-26T00:41:57.455Z,24.72
2022-07-26T00:44:24.514Z,24.64
2022-07-26T00:46:54.959Z,24.62
2022-07-26T00:49:22.300Z,24.59
2022-07-26T00:51:49.136Z,24.48
2022-07-26T00:54:15.729Z,24.51
2022-07-26T00:56:42.423Z,24.58
2022-07-26T00:59:10.134Z,24.59
2022-07-26T01:01:37.620Z,24.54
2022-07-26T01:04:05.019Z,24.47
2022-07-26T01:06:31.835Z,24.40
2022-07-26T01:08:58.373Z,24.41
2022-07-26T01:11:27.593Z,24.39
2022-07-26T01:13:54.276Z,24.40
2022-07-26T01:16:23.610Z,24.41
2022-07-26T01:18:50.787Z,24.40
2022-07-26T01:21:17.632Z,24.39
2022-07-26T01:23:47.237Z,24.38
2022-07-26T01:26:14.055Z,24.36
2022-07-26T01:28:44.952Z,24.35
2022-07-26T01:31:11.538Z,24.36
2022-07-26T01:33:38.192Z,24.35
2022-07-26T01:36:08.141Z,24.27
2022-07-26T01:38:34.898Z,24.20
2022-07-26T01:41:03.892Z,24.21
2022-07-26T01:43:33.360Z,24.22
2022-07-26T01:46:02.270Z,24.21
2022-07-26T01:48:28.913Z,24.22
2022-07-26T01:50:56.992Z,24.23
2022-07-26T01:53:23.602Z,24.23
2022-07-26T01:55:50.677Z,24.18
2022-07-26T01:58:17.422Z,24.08
2022-07-26T02:00:46.255Z,24.00
2022-07-26T02:03:12.964Z,23.92
2022-07-26T02:05:41.695Z,23.85
2022-07-26T02:08:08.740Z,23.85
2022-07-26T02:10:56.548Z,23.87
2022-07-26T02:13:24.061Z,23.83
2022-07-26T02:15:50.804Z,23.82
2022-07-26T02:18:17.514Z,23.84
2022-07-26T02:20:46.625Z,23.75
2022-07-26T02:23:17.137Z,23.70
2022-07-26T02:25:43.701Z,23.70
2022-07-26T02:28:13.528Z,23.74
2022-07-26T02:30:40.485Z,23.76
2022-07-26T02:33:09.374Z,23.78
2022-07-26T02:35:36.145Z,23.76
2022-07-26T02:38:03.912Z,23.74
2022-07-26T02:40:33.553Z,23.75
2022-07-26T02:43:00.276Z,23.71
2022-07-26T02:45:27.422Z,23.73
2022-07-26T02:47:54.474Z,23.77
2022-07-26T02:50:25.775Z,23.77
2022-07-26T02:52:52.762Z,23.79
2022-07-26T02:55:22.195Z,23.77
2022-07-26T02:57:48.995Z,23.73
2022-07-26T03:00:16.761Z,23.65
2022-07-26T03:02:45.701Z,23.61
2022-07-26T03:05:15.053Z,23.57
2022-07-26T03:07:41.738Z,23.50
2022-07-26T03:10:08.447Z,23.45
2022-07-26T03:12:37.886Z,23.40
2022-07-26T03:15:07.217Z,23.39
2022-07-26T03:17:33.838Z,23.22
2022-07-26T03:20:00.996Z,23.34
2022-07-26T03:22:29.857Z,23.31
2022-07-26T03:24:56.504Z,23.28
2022-07-26T03:27:25.595Z,23.31
2022-07-26T03:29:52.262Z,23.35
2022-07-26T03:32:19.459Z,23.37
2022-07-26T03:34:48.532Z,23.39
2022-07-26T03:37:18.685Z,23.37
2022-07-26T03:39:45.798Z,23.39
2022-07-26T03:42:12.389Z,23.41
2022-07-26T03:44:39.456Z,23.45
2022-07-26T03:47:08.560Z,23.45
2022-07-26T03:49:35.280Z,23.44
2022-07-26T03:52:02.049Z,23.43
2022-07-26T03:54:31.605Z,23.47
2022-07-26T03:56:58.163Z,23.50
2022-07-26T03:59:25.728Z,23.50
2022-07-26T04:01:52.412Z,23.54
2022-07-26T04:04:19.318Z,23.56
2022-07-26T04:06:52.050Z,23.55
2022-07-26T04:09:19.979Z,23.58
2022-07-26T04:11:49.059Z,23.62
2022-07-26T04:14:15.750Z,23.68
2022-07-26T04:16:43.802Z,23.73
2022-07-26T04:19:11.013Z,23.77
2022-07-26T04:24:53.037Z,23.85
2022-07-26T04:27:27.643Z,23.93
2022-07-26T04:29:54.305Z,24.04
2022-07-26T04:32:21.040Z,24.15
2022-07-26T04:34:52.269Z,24.30
2022-07-26T04:37:18.932Z,24.40
2022-07-26T04:39:45.671Z,24.57
2022-07-26T04:42:12.411Z,24.71
2022-07-26T04:44:39.150Z,24.76
2022-07-26T04:47:05.900Z,24.78
2022-07-26T04:49:32.483Z,24.77
2022-07-26T04:51:59.689Z,24.76
2022-07-26T04:54:28.859Z,24.76
2022-07-26T04:56:59.992Z,24.71
2022-07-26T04:59:26.615Z,24.76
2022-07-26T05:01:53.319Z,24.81
2022-07-26T05:04:20.021Z,24.78
2022-07-26T05:06:49.559Z,24.79
2022-07-26T05:09:19.186Z,24.75
2022-07-26T05:11:45.845Z,24.73
2022-07-26T05:14:15.891Z,24.72
2022-07-26T05:16:44.193Z,24.71
2022-07-26T05:19:14.662Z,24.75
2022-07-26T05:21:41.348Z,24.78
2022-07-26T05:24:08.441Z,24.81
2022-07-26T05:26:35.582Z,24.84
2022-07-26T05:29:04.994Z,24.88
2022-07-26T05:31:31.743Z,24.93
2022-07-26T05:34:00.978Z,24.97
2022-07-26T05:36:27.639Z,25.02
2022-07-26T05:38:54.359Z,25.08
2022-07-26T05:41:21.659Z,25.16
2022-07-26T05:43:50.755Z,25.24
2022-07-26T05:46:17.397Z,25.33
2022-07-26T05:48:46.449Z,25.43
2022-07-26T05:51:15.433Z,25.55
2022-07-26T05:53:47.468Z,25.67
2022-07-26T05:56:17.214Z,25.77
2022-07-26T05:58:43.854Z,25.90
2022-07-26T06:01:13.578Z,25.98
2022-07-26T06:03:43.267Z,26.09
2022-07-26T06:06:10.572Z,26.18
2022-07-26T06:08:37.401Z,26.21
2022-07-26T06:11:06.920Z,26.31
2022-07-26T06:13:39.395Z,26.44
2022-07-26T06:16:06.237Z,26.50
2022-07-26T06:18:33.385Z,26.57
2022-07-26T06:21:02.465Z,26.58
2022-07-26T06:23:34.337Z,26.61
2022-07-26T06:26:05.004Z,26.68
2022-07-26T06:28:32.308Z,26.67
2022-07-26T06:30:59.129Z,26.68
2022-07-26T06:33:25.967Z,26.78
2022-07-26T06:35:52.705Z,26.84
2022-07-26T06:38:19.552Z,26.92
2022-07-26T06:40:46.431Z,27.01
2022-07-26T06:43:15.876Z,27.02
2022-07-26T06:45:42.550Z,27.04
2022-07-26T06:48:09.165Z,27.11
2022-07-26T06:50:36.386Z,27.02
2022-07-26T06:53:03.326Z,26.93
2022-07-26T06:55:30.371Z,26.99
2022-07-26T06:58:00.800Z,26.99
2022-07-26T07:00:27.490Z,27.01
2022-07-26T07:02:54.687Z,27.03
2022-07-26T07:05:22.019Z,27.10
2022-07-26T07:07:48.861Z,27.20
2022-07-26T07:10:15.633Z,27.39
2022-07-26T07:12:45.511Z,27.61
2022-07-26T07:15:12.276Z,27.87
2022-07-26T07:17:39.109Z,28.04
2022-07-26T07:20:06.241Z,28.17
2022-07-26T07:22:33.230Z,28.29
2022-07-26T07:25:03.116Z,28.29
2022-07-26T07:27:33.047Z,28.20
2022-07-26T07:30:00.984Z,28.19
2022-07-26T07:32:28.526Z,28.23
2022-07-26T07:34:59.673Z,28.21
2022-07-26T07:37:26.532Z,28.18
2022-07-26T07:39:53.093Z,28.12
2022-07-26T07:42:20.731Z,28.03
2022-07-26T07:44:47.519Z,27.97
2022-07-26T07:47:14.423Z,27.92
2022-07-26T07:49:44.124Z,28.08
2022-07-26T07:52:10.850Z,28.21
2022-07-26T07:54:37.962Z,28.23
2022-07-26T07:57:06.997Z,28.31
2022-07-26T07:59:37.120Z,28.44
2022-07-26T08:02:06.412Z,28.43
2022-07-26T08:04:33.211Z,28.54
2022-07-26T08:07:03.121Z,28.74
2022-07-26T08:09:33.829Z,28.85
2022-07-26T08:12:01.066Z,28.75
2022-07-26T08:14:35.883Z,28.64
2022-07-26T08:17:08.068Z,28.70
2022-07-26T08:19:41.734Z,28.52
2022-07-26T08:22:09.785Z,28.43
2022-07-26T08:24:39.544Z,28.54
2022-07-26T08:27:06.343Z,28.52
2022-07-26T08:29:33.406Z,28.51
2022-07-26T08:32:00.252Z,28.40
2022-07-26T08:34:27.091Z,28.23
2022-07-26T08:37:15.365Z,27.99
2022-07-26T08:39:40.923Z,28.01
2022-07-26T08:42:17.142Z,28.06
2022-07-26T08:44:49.540Z,28.25
2022-07-26T08:47:17.482Z,28.27
2022-07-26T08:50:02.450Z,28.29
2022-07-26T08:52:29.089Z,28.43
2022-07-26T08:54:55.865Z,28.46
2022-07-26T08:57:22.563Z,28.45
2022-07-26T09:00:09.332Z,28.49
2022-07-26T09:02:39.739Z,28.61
2022-07-26T09:05:11.002Z,28.81
2022-07-26T09:07:40.341Z,28.93
2022-07-26T09:10:08.515Z,29.07
2022-07-26T09:12:40.869Z,29.29
2022-07-26T09:15:09.065Z,29.62
2022-07-26T09:17:40.705Z,29.93
2022-07-26T09:20:07.930Z,30.28
2022-07-26T09:22:34.816Z,30.11
2022-07-26T09:25:01.722Z,30.22
2022-07-26T09:27:34.404Z,30.26
2022-07-26T09:30:04.959Z,30.21
2022-07-26T09:32:31.782Z,30.05
2022-07-26T09:35:44.199Z,29.88
2022-07-26T09:37:59.004Z,29.63
2022-07-26T09:40:31.231Z,29.47
2022-07-26T09:43:04.199Z,29.24
2022-07-26T09:45:32.807Z,28.84
2022-07-26T09:47:59.760Z,28.46
2022-07-26T09:50:28.118Z,28.09
2022-07-26T09:53:02.680Z,27.79
2022-07-26T09:55:42.531Z,27.39
2022-07-26T09:58:14.734Z,26.99
2022-07-26T10:00:44.384Z,26.47
2022-07-26T10:03:11.374Z,25.97
2022-07-26T10:05:38.389Z,25.35
2022-07-26T10:08:07.877Z,24.71
2022-07-26T10:10:34.493Z,24.17
2022-07-26T10:13:03.077Z,23.91
2022-07-26T10:15:39.513Z,23.61
2022-07-26T10:18:09.053Z,23.43
2022-07-26T10:20:40.317Z,23.44
2022-07-26T10:23:25.874Z,23.59
2022-07-26T10:25:54.355Z,23.48
2022-07-26T10:28:26.321Z,23.46
2022-07-26T10:30:55.449Z,23.38
2022-07-26T10:33:25.403Z,23.44
2022-07-26T10:35:51.953Z,23.60
2022-07-26T10:38:25.770Z,23.69
2022-07-26T10:40:58.708Z,23.83
2022-07-26T10:43:42.053Z,23.96
2022-07-26T10:46:12.006Z,24.27
2022-07-26T10:48:57.640Z,24.37
2022-07-26T10:51:28.442Z,24.46
2022-07-26T10:54:01.534Z,24.40
2022-07-26T10:56:33.618Z,24.15
2022-07-26T10:59:01.559Z,24.07
2022-07-26T11:01:34.151Z,24.06
2022-07-26T11:04:01.282Z,24.00
2022-07-26T11:06:28.541Z,23.93
2022-07-26T11:08:56.092Z,23.92
2022-07-26T11:11:32.974Z,23.86
2022-07-26T11:14:10.664Z,23.81
2022-07-26T11:16:41.371Z,23.77
2022-07-26T11:19:20.138Z,23.70
2022-07-26T11:21:47.908Z,23.66
2022-07-26T11:24:14.851Z,23.63
2022-07-26T11:26:42.786Z,23.65
2022-07-26T11:29:09.591Z,23.86
2022-07-26T11:31:51.594Z,24.07
2022-07-26T11:34:24.261Z,24.17
2022-07-26T11:36:51.911Z,24.27
2022-07-26T11:39:22.591Z,24.34
2022-07-26T11:41:52.543Z,24.52
2022-07-26T11:44:20.528Z,24.65
2022-07-26T11:46:50.109Z,24.72
2022-07-26T11:49:20.245Z,24.97
2022-07-26T11:51:54.311Z,24.91
2022-07-26T11:54:27.116Z,24.78
2022-07-26T11:56:56.979Z,24.87
2022-07-26T11:59:24.353Z,24.93
2022-07-26T12:01:53.455Z,24.96
2022-07-26T12:04:23.578Z,25.00
2022-07-26T12:06:50.808Z,25.10
2022-07-26T12:09:29.789Z,25.16
2022-07-26T12:12:01.050Z,25.44
2022-07-26T12:14:33.734Z,25.54
2022-07-26T12:17:10.734Z,25.65
2022-07-26T12:19:39.745Z,25.71
2022-07-26T12:22:16.688Z,25.79
2022-07-26T12:24:46.319Z,25.97
2022-07-26T12:27:13.020Z,25.87
2022-07-26T12:29:40.463Z,25.79
2022-07-26T12:32:12.072Z,25.98
2022-07-26T12:34:43.358Z,26.23
2022-07-26T12:37:13.402Z,26.40
2022-07-26T12:39:41.275Z,26.46
2022-07-26T12:42:22.800Z,26.32
2022-07-26T12:45:00.272Z,26.41
2022-07-26T12:47:29.884Z,26.22
2022-07-26T12:49:56.745Z,26.30
2022-07-26T12:52:23.614Z,26.19
2022-07-26T12:54:53.524Z,26.15
2022-07-26T12:57:20.310Z,26.15
2022-07-26T12:59:49.484Z,26.05
2022-07-26T13:02:19.558Z,26.59
2022-07-26T13:04:46.677Z,26.74
2022-07-26T13:07:14.274Z,26.73
2022-07-26T13:09:43.323Z,27.14
2022-07-26T13:12:12.289Z,27.62
2022-07-26T13:14:39.214Z,28.66
2022-07-26T13:17:06.891Z,30.22
2022-07-26T13:19:33.682Z,31.91
2022-07-26T13:22:00.530Z,33.29
2022-07-26T13:24:30.404Z,34.01
2022-07-26T13:26:57.583Z,33.53
2022-07-26T13:29:27.204Z,32.03
2022-07-26T13:31:56.197Z,30.78
2022-07-26T13:34:23.340Z,30.24
2022-07-26T13:36:50.493Z,29.88
2022-07-26T13:39:17.490Z,29.38
2022-07-26T13:41:44.500Z,29.16
2022-07-26T13:44:11.619Z,28.98
2022-07-26T13:46:41.756Z,28.88
2022-07-26T13:49:08.843Z,28.84
2022-07-26T13:51:54.381Z,28.95
2022-07-26T13:54:21.501Z,28.83
2022-07-26T13:56:48.576Z,28.37
2022-07-26T13:59:15.222Z,28.09
2022-07-26T14:01:46.745Z,28.02
2022-07-26T14:04:14.364Z,27.92
2022-07-26T14:06:41.503Z,27.83
2022-07-26T14:09:11.188Z,27.92
2022-07-26T14:11:38.044Z,28.15
2022-07-26T14:14:04.598Z,28.13
2022-07-26T14:16:31.458Z,27.99
2022-07-26T14:18:58.364Z,27.90
2022-07-26T14:21:29.068Z,27.81
2022-07-26T14:24:05.372Z,27.78
2022-07-26T14:26:34.472Z,27.78
2022-07-26T14:29:01.259Z,28.22
2022-07-26T14:31:32.434Z,29.06
2022-07-26T14:34:04.414Z,28.90
2022-07-26T14:36:31.061Z,28.55
2022-07-26T14:38:57.753Z,28.44
2022-07-26T14:41:27.457Z,28.10
2022-07-26T14:43:55.533Z,27.76
2022-07-26T14:46:22.511Z,27.57
2022-07-26T14:48:54.894Z,27.63
2022-07-26T14:51:21.850Z,27.67
2022-07-26T14:53:51.163Z,27.72
2022-07-26T14:56:20.858Z,27.78
2022-07-26T14:58:47.610Z,27.84
2022-07-26T15:01:14.524Z,27.85
2022-07-26T15:03:41.780Z,27.48
2022-07-26T15:06:08.959Z,27.61
2022-07-26T15:08:36.177Z,27.64
2022-07-26T15:11:02.817Z,27.67
2022-07-26T15:13:32.163Z,27.62
2022-07-26T15:16:01.162Z,27.45
2022-07-26T15:18:30.263Z,27.31
2022-07-26T15:20:57.935Z,27.32
2022-07-26T15:23:24.880Z,27.43
2022-07-26T15:25:53.691Z,27.44
2022-07-26T15:28:20.316Z,27.29
2022-07-26T15:30:49.433Z,27.36
2022-07-26T15:33:25.316Z,27.43
2022-07-26T15:35:59.471Z,27.50
2022-07-26T15:38:30.546Z,27.69
2022-07-26T15:41:02.740Z,27.76
2022-07-26T15:43:48.986Z,27.93
2022-07-26T15:46:24.790Z,27.82
2022-07-26T15:48:54.010Z,27.78
2022-07-26T15:51:26.222Z,27.82
2022-07-26T15:53:52.827Z,27.69
2022-07-26T15:56:22.817Z,27.59
2022-07-26T15:58:49.425Z,27.65
2022-07-26T16:01:16.079Z,27.58
2022-07-26T16:03:45.425Z,27.36
2022-07-26T16:06:12.081Z,27.13
2022-07-26T16:08:58.519Z,26.80
2022-07-26T16:11:25.404Z,26.51
2022-07-26T16:13:52.154Z,26.47
2022-07-26T16:16:28.719Z,26.54
2022-07-26T16:18:55.913Z,26.50
2022-07-26T16:21:22.632Z,26.42
2022-07-26T16:23:51.068Z,26.42
2022-07-26T16:26:17.930Z,26.57
2022-07-26T16:28:44.529Z,26.70
2022-07-26T16:31:11.523Z,26.44
2022-07-26T16:33:46.513Z,26.43
2022-07-26T16:36:15.885Z,26.31
2022-07-26T16:38:42.594Z,26.24
2022-07-26T16:41:11.745Z,26.30
2022-07-26T16:43:38.470Z,26.35
2022-07-26T16:46:05.106Z,26.34
2022-07-26T16:48:34.243Z,26.41
2022-07-26T16:51:03.639Z,26.59
2022-07-26T16:53:30.491Z,26.69
2022-07-26T16:55:57.073Z,26.71
2022-07-26T16:58:23.789Z,26.66
2022-07-26T17:00:50.642Z,26.70
2022-07-26T17:03:17.446Z,26.72
2022-07-26T17:05:47.336Z,26.66
2022-07-26T17:08:14.950Z,26.50
2022-07-26T17:10:41.689Z,26.40
2022-07-26T17:13:08.417Z,26.39
2022-07-26T17:15:35.042Z,26.46
2022-07-26T17:18:04.415Z,26.54
2022-07-26T17:20:31.157Z,26.61
2022-07-26T17:23:02.655Z,26.45
2022-07-26T17:25:29.588Z,26.31
2022-07-26T17:27:56.506Z,26.17
2022-07-26T17:30:23.223Z,26.04
2022-07-26T17:32:53.330Z,25.96
2022-07-26T17:35:22.045Z,26.01
2022-07-26T17:37:48.780Z,26.03
2022-07-26T17:40:16.367Z,25.97
2022-07-26T17:42:43.215Z,25.92
2022-07-26T17:45:10.071Z,25.80
2022-07-26T17:47:36.723Z,25.73
2022-07-26T17:50:35.515Z,25.64
2022-07-26T17:52:55.820Z,25.62
2022-07-26T17:55:22.566Z,25.58
2022-07-26T17:57:51.852Z,25.59
2022-07-26T18:00:19.059Z,25.57
2022-07-26T18:02:45.896Z,25.53
2022-07-26T18:05:14.955Z,25.51
2022-07-26T18:07:41.665Z,25.53
2022-07-26T18:10:11.561Z,25.40
2022-07-26T18:12:43.052Z,25.35
2022-07-26T18:15:10.059Z,25.40
2022-07-26T18:17:37.173Z,25.42
2022-07-26T18:20:05.560Z,25.43
2022-07-26T18:22:34.331Z,25.38
2022-07-26T18:25:01.030Z,25.40
2022-07-26T18:27:28.474Z,25.36
2022-07-26T18:29:55.813Z,25.31
2022-07-26T18:32:24.821Z,25.24
2022-07-26T18:34:52.580Z,25.06
2022-07-26T18:37:21.914Z,25.02
2022-07-26T18:39:52.746Z,24.96
2022-07-26T18:42:25.014Z,24.98
2022-07-26T18:44:52.701Z,24.99
2022-07-26T18:47:23.119Z,24.90
2022-07-26T18:49:50.183Z,24.94
2022-07-26T18:52:17.613Z,24.99
2022-07-26T18:54:55.882Z,25.02
2022-07-26T18:57:27.371Z,25.04
2022-07-26T18:59:54.087Z,24.98
2022-07-26T19:02:23.056Z,24.97
2022-07-26T19:04:49.735Z,24.97
2022-07-26T19:07:16.330Z,24.93
2022-07-26T19:09:42.943Z,24.75
2022-07-26T19:12:10.037Z,24.60
2022-07-26T19:14:37.097Z,24.59
2022-07-26T19:17:05.848Z,24.64
2022-07-26T19:19:32.649Z,24.64
2022-07-26T19:21:59.478Z,24.63
2022-07-26T19:24:43.619Z,24.62
2022-07-26T19:27:10.880Z,24.55
2022-07-26T19:29:40.610Z,24.54
2022-07-26T19:32:08.265Z,24.53
2022-07-26T19:34:35.112Z,24.50
2022-07-26T19:37:01.872Z,24.48
2022-07-26T19:39:28.526Z,24.44
2022-07-26T19:41:55.233Z,24.42
2022-07-26T19:44:24.263Z,24.41
2022-07-26T19:46:55.566Z,24.41
2022-07-26T19:49:26.894Z,24.28
2022-07-26T19:51:53.629Z,24.28
2022-07-26T19:54:23.035Z,24.26
2022-07-26T19:56:51.715Z,24.24
2022-07-26T19:59:23.413Z,24.19
2022-07-26T20:01:52.882Z,24.17
2022-07-26T20:04:21.932Z,24.14
2022-07-26T20:06:58.025Z,24.15
2022-07-26T20:09:24.872Z,24.14
2022-07-26T20:11:55.855Z,24.15
2022-07-26T20:14:22.683Z,24.08
2022-07-26T20:16:52.980Z,24.02
2022-07-26T20:19:29.132Z,23.95
2022-07-26T20:22:11.695Z,23.91
2022-07-26T20:24:41.237Z,23.83
2022-07-26T20:27:10.431Z,23.83
2022-07-26T20:29:39.820Z,23.80
2022-07-26T20:32:06.474Z,23.64
2022-07-26T20:34:36.196Z,23.46
2022-07-26T20:37:05.671Z,23.38
2022-07-26T20:39:35.952Z,23.28
2022-07-26T20:42:02.767Z,23.24
2022-07-26T20:44:32.708Z,23.18
2022-07-26T20:47:01.187Z,23.19
2022-07-26T20:49:30.647Z,23.19
2022-07-26T20:51:57.867Z,23.21
2022-07-26T20:54:24.482Z,23.24
2022-07-26T20:56:51.564Z,23.27
2022-07-26T20:59:18.173Z,23.30
2022-07-26T21:01:44.786Z,23.32
2022-07-26T21:04:16.326Z,23.18
2022-07-26T21:06:43.245Z,23.19
2022-07-26T21:09:10.691Z,23.10
2022-07-26T21:11:38.277Z,23.08
2022-07-26T21:14:07.688Z,23.12
2022-07-26T21:16:34.818Z,23.12
2022-07-26T21:19:02.174Z,23.09
2022-07-26T21:21:29.721Z,23.10
2022-07-26T21:23:59.800Z,23.07
2022-07-26T21:26:26.745Z,23.00
2022-07-26T21:28:56.308Z,23.02
2022-07-26T21:31:22.834Z,23.03
2022-07-26T21:33:49.380Z,23.05
2022-07-26T21:36:16.550Z,23.06
2022-07-26T21:38:44.177Z,23.06
2022-07-26T21:41:14.000Z,23.05
2022-07-26T21:43:40.667Z,22.97
2022-07-26T21:46:13.055Z,22.72
2022-07-26T21:48:42.626Z,22.67
2022-07-26T21:51:09.319Z,22.64
2022-07-26T21:53:36.386Z,22.51
2022-07-26T21:56:05.534Z,22.49
2022-07-26T21:58:36.104Z,22.55
2022-07-26T22:01:07.153Z,22.59
2022-07-26T22:03:34.464Z,22.59
2022-07-26T22:06:03.879Z,22.53
2022-07-26T22:08:32.017Z,22.47
2022-07-26T22:10:59.225Z,22.44
2022-07-26T22:13:25.944Z,22.43
2022-07-26T22:15:52.647Z,22.43
2022-07-26T22:18:22.251Z,22.39
2022-07-26T22:20:51.654Z,22.30
2022-07-26T22:23:18.687Z,22.30
2022-07-26T22:25:47.610Z,22.35
2022-07-26T22:28:17.802Z,22.35
2022-07-26T22:30:44.757Z,22.32
2022-07-26T22:33:12.092Z,22.29
2022-07-26T22:35:38.856Z,22.27
2022-07-26T22:38:09.989Z,22.29
2022-07-26T22:40:37.020Z,22.35
2022-07-26T22:43:03.874Z,22.34
2022-07-26T22:45:35.597Z,22.36
2022-07-26T22:48:02.662Z,22.37
2022-07-26T22:50:29.268Z,22.34
2022-07-26T22:52:56.108Z,22.27
2022-07-26T22:55:25.158Z,22.26
2022-07-26T22:57:52.025Z,22.16
2022-07-26T23:00:19.074Z,22.05
2022-07-26T23:02:45.879Z,22.05
2022-07-26T23:05:14.890Z,22.07
2022-07-26T23:07:41.643Z,22.12
2022-07-26T23:10:14.282Z,22.17
2022-07-26T23:12:41.201Z,22.23
2022-07-26T23:15:09.817Z,22.22
2022-07-26T23:17:37.539Z,22.13
2022-07-26T23:20:04.970Z,22.07
2022-07-26T23:22:33.884Z,22.00
2022-07-26T23:25:03.455Z,21.92
2022-07-26T23:27:30.520Z,21.91
2022-07-26T23:29:59.625Z,21.96
2022-07-26T23:32:26.253Z,21.96
2022-07-26T23:34:52.975Z,21.91
2022-07-26T23:37:20.026Z,21.93
2022-07-26T23:39:46.674Z,21.90
2022-07-26T23:42:13.319Z,21.84
2022-07-26T23:44:39.912Z,21.80
2022-07-26T23:47:06.707Z,21.76
2022-07-26T23:49:36.144Z,21.72
2022-07-26T23:52:03.326Z,21.70
2022-07-26T23:54:29.937Z,21.74
2022-07-26T23:56:56.707Z,21.73
2022-07-26T23:59:26.329Z,21.71
